sensor_id;sensor_type;location;lat;lon;timestamp;temperature;humidity
64062;DHT22;50308;47.438;-1.528;2022-10-16T00:00:34;18.00;80.00
64062;DHT22;50308;47.438;-1.528;2022-10-16T00:03:00;18.00;80.00
64062;DHT22;50308;47.438;-1.528;2022-10-16T00:05:26;17.90;79.90
64062;DHT22;50308;47.438;-1.528;2022-10-16T00:07:51;18.00;80.00
64062;DHT22;50308;47.438;-1.528;2022-10-16T00:10:17;17.90;79.90
64062;DHT22;50308;47.438;-1.528;2022-10-16T00:12:42;18.00;80.00
64062;DHT22;50308;47.438;-1.528;2022-10-16T00:15:08;17.90;79.90
64062;DHT22;50308;47.438;-1.528;2022-10-16T00:17:34;17.90;80.00
64062;DHT22;50308;47.438;-1.528;2022-10-16T00:19:59;17.90;79.90
64062;DHT22;50308;47.438;-1.528;2022-10-16T00:22:25;17.90;80.00
64062;DHT22;50308;47.438;-1.528;2022-10-16T00:24:50;18.00;80.20
64062;DHT22;50308;47.438;-1.528;2022-10-16T00:27:16;17.90;80.20
64062;DHT22;50308;47.438;-1.528;2022-10-16T00:29:42;17.90;80.40
64062;DHT22;50308;47.438;-1.528;2022-10-16T00:32:07;17.90;80.30
64062;DHT22;50308;47.438;-1.528;2022-10-16T00:34:33;17.90;80.40
64062;DHT22;50308;47.438;-1.528;2022-10-16T00:36:59;17.90;80.50
64062;DHT22;50308;47.438;-1.528;2022-10-16T00:39:24;17.90;80.50
64062;DHT22;50308;47.438;-1.528;2022-10-16T00:41:50;17.90;80.40
64062;DHT22;50308;47.438;-1.528;2022-10-16T00:47:00;17.90;80.50
64062;DHT22;50308;47.438;-1.528;2022-10-16T00:49:25;17.90;80.60
64062;DHT22;50308;47.438;-1.528;2022-10-16T00:51:52;18.00;80.80
64062;DHT22;50308;47.438;-1.528;2022-10-16T00:54:28;18.00;80.90
64062;DHT22;50308;47.438;-1.528;2022-10-16T00:56:55;18.00;80.90
64062;DHT22;50308;47.438;-1.528;2022-10-16T01:01:50;18.00;81.00
64062;DHT22;50308;47.438;-1.528;2022-10-16T01:04:16;18.00;80.90
64062;DHT22;50308;47.438;-1.528;2022-10-16T01:06:53;18.00;80.90
64062;DHT22;50308;47.438;-1.528;2022-10-16T01:09:23;18.00;81.00
64062;DHT22;50308;47.438;-1.528;2022-10-16T01:17:22;18.00;81.10
64062;DHT22;50308;47.438;-1.528;2022-10-16T01:19:58;17.90;81.10
64062;DHT22;50308;47.438;-1.528;2022-10-16T01:22:30;17.90;81.00
64062;DHT22;50308;47.438;-1.528;2022-10-16T01:24:58;18.00;81.00
64062;DHT22;50308;47.438;-1.528;2022-10-16T01:27:26;17.90;81.20
64062;DHT22;50308;47.438;-1.528;2022-10-16T01:29:56;17.90;81.10
64062;DHT22;50308;47.438;-1.528;2022-10-16T01:32:28;17.90;81.10
64062;DHT22;50308;47.438;-1.528;2022-10-16T01:35:09;17.90;81.10
64062;DHT22;50308;47.438;-1.528;2022-10-16T01:37:40;17.90;81.10
64062;DHT22;50308;47.438;-1.528;2022-10-16T01:40:09;18.00;80.90
64062;DHT22;50308;47.438;-1.528;2022-10-16T01:42:37;18.00;81.10
64062;DHT22;50308;47.438;-1.528;2022-10-16T01:45:04;18.00;81.20
64062;DHT22;50308;47.438;-1.528;2022-10-16T01:47:32;18.00;81.30
64062;DHT22;50308;47.438;-1.528;2022-10-16T01:49:59;18.00;81.50
64062;DHT22;50308;47.438;-1.528;2022-10-16T01:52:27;18.00;81.30
64062;DHT22;50308;47.438;-1.528;2022-10-16T01:54:54;18.00;81.30
64062;DHT22;50308;47.438;-1.528;2022-10-16T01:57:21;18.00;81.40
64062;DHT22;50308;47.438;-1.528;2022-10-16T01:59:47;18.00;81.50
64062;DHT22;50308;47.438;-1.528;2022-10-16T02:02:14;18.00;81.40
64062;DHT22;50308;47.438;-1.528;2022-10-16T02:04:44;18.00;81.50
64062;DHT22;50308;47.438;-1.528;2022-10-16T02:07:11;18.00;81.40
64062;DHT22;50308;47.438;-1.528;2022-10-16T02:09:37;17.90;81.50
64062;DHT22;50308;47.438;-1.528;2022-10-16T02:12:06;18.00;81.60
64062;DHT22;50308;47.438;-1.528;2022-10-16T02:14:33;18.00;81.70
64062;DHT22;50308;47.438;-1.528;2022-10-16T02:16:59;18.00;81.50
64062;DHT22;50308;47.438;-1.528;2022-10-16T02:19:24;18.00;81.40
64062;DHT22;50308;47.438;-1.528;2022-10-16T02:21:51;17.90;81.30
64062;DHT22;50308;47.438;-1.528;2022-10-16T02:29:16;18.00;81.40
64062;DHT22;50308;47.438;-1.528;2022-10-16T02:31:45;18.00;81.60
64062;DHT22;50308;47.438;-1.528;2022-10-16T02:34:12;18.00;81.50
64062;DHT22;50308;47.438;-1.528;2022-10-16T02:36:39;18.00;81.40
64062;DHT22;50308;47.438;-1.528;2022-10-16T02:39:05;18.00;81.10
64062;DHT22;50308;47.438;-1.528;2022-10-16T02:41:31;18.00;81.60
64062;DHT22;50308;47.438;-1.528;2022-10-16T02:44:00;18.00;81.60
64062;DHT22;50308;47.438;-1.528;2022-10-16T02:46:26;18.00;81.60
64062;DHT22;50308;47.438;-1.528;2022-10-16T02:48:52;18.00;81.40
64062;DHT22;50308;47.438;-1.528;2022-10-16T02:51:17;18.00;81.70
64062;DHT22;50308;47.438;-1.528;2022-10-16T02:53:43;18.00;81.30
64062;DHT22;50308;47.438;-1.528;2022-10-16T02:56:09;18.00;81.50
64062;DHT22;50308;47.438;-1.528;2022-10-16T02:58:35;18.00;81.40
64062;DHT22;50308;47.438;-1.528;2022-10-16T03:01:01;18.00;81.70
64062;DHT22;50308;47.438;-1.528;2022-10-16T03:03:26;18.00;81.40
64062;DHT22;50308;47.438;-1.528;2022-10-16T03:05:58;18.00;81.40
64062;DHT22;50308;47.438;-1.528;2022-10-16T03:08:25;18.00;81.20
64062;DHT22;50308;47.438;-1.528;2022-10-16T03:10:50;18.00;81.40
64062;DHT22;50308;47.438;-1.528;2022-10-16T03:13:16;18.00;81.50
64062;DHT22;50308;47.438;-1.528;2022-10-16T03:15:42;18.00;81.60
64062;DHT22;50308;47.438;-1.528;2022-10-16T03:18:07;18.00;81.60
64062;DHT22;50308;47.438;-1.528;2022-10-16T03:20:33;18.00;81.90
64062;DHT22;50308;47.438;-1.528;2022-10-16T03:22:58;18.00;81.00
64062;DHT22;50308;47.438;-1.528;2022-10-16T03:25:24;18.00;81.80
64062;DHT22;50308;47.438;-1.528;2022-10-16T03:27:50;18.00;82.20
64062;DHT22;50308;47.438;-1.528;2022-10-16T03:30:17;18.00;80.90
64062;DHT22;50308;47.438;-1.528;2022-10-16T03:32:45;18.00;81.60
64062;DHT22;50308;47.438;-1.528;2022-10-16T03:35:11;18.00;81.20
64062;DHT22;50308;47.438;-1.528;2022-10-16T03:37:37;18.10;81.10
64062;DHT22;50308;47.438;-1.528;2022-10-16T03:40:03;18.00;81.00
64062;DHT22;50308;47.438;-1.528;2022-10-16T03:42:29;18.00;80.40
64062;DHT22;50308;47.438;-1.528;2022-10-16T03:44:55;18.00;81.60
64062;DHT22;50308;47.438;-1.528;2022-10-16T03:47:21;18.00;80.80
64062;DHT22;50308;47.438;-1.528;2022-10-16T03:49:48;18.00;80.00
64062;DHT22;50308;47.438;-1.528;2022-10-16T03:52:14;18.10;80.00
64062;DHT22;50308;47.438;-1.528;2022-10-16T03:54:39;18.00;80.00
64062;DHT22;50308;47.438;-1.528;2022-10-16T03:57:05;18.10;80.40
64062;DHT22;50308;47.438;-1.528;2022-10-16T03:59:30;18.10;80.70
64062;DHT22;50308;47.438;-1.528;2022-10-16T04:01:56;18.00;81.40
64062;DHT22;50308;47.438;-1.528;2022-10-16T04:04:22;18.00;80.90
64062;DHT22;50308;47.438;-1.528;2022-10-16T04:06:48;18.00;81.30
64062;DHT22;50308;47.438;-1.528;2022-10-16T04:09:13;18.00;81.40
64062;DHT22;50308;47.438;-1.528;2022-10-16T04:11:39;18.10;81.20
64062;DHT22;50308;47.438;-1.528;2022-10-16T04:14:04;18.10;81.50
64062;DHT22;50308;47.438;-1.528;2022-10-16T04:16:30;18.00;80.80
64062;DHT22;50308;47.438;-1.528;2022-10-16T04:18:56;18.10;81.30
64062;DHT22;50308;47.438;-1.528;2022-10-16T04:21:21;18.10;80.70
64062;DHT22;50308;47.438;-1.528;2022-10-16T04:23:47;18.10;81.30
64062;DHT22;50308;47.438;-1.528;2022-10-16T04:26:13;18.10;80.40
64062;DHT22;50308;47.438;-1.528;2022-10-16T04:28:42;18.10;81.30
64062;DHT22;50308;47.438;-1.528;2022-10-16T04:31:08;18.00;81.00
64062;DHT22;50308;47.438;-1.528;2022-10-16T04:33:34;18.00;81.30
64062;DHT22;50308;47.438;-1.528;2022-10-16T04:36:00;18.00;80.70
64062;DHT22;50308;47.438;-1.528;2022-10-16T04:38:26;18.00;81.40
64062;DHT22;50308;47.438;-1.528;2022-10-16T04:40:52;18.00;80.80
64062;DHT22;50308;47.438;-1.528;2022-10-16T04:43:18;18.00;81.20
64062;DHT22;50308;47.438;-1.528;2022-10-16T04:45:43;18.00;81.60
64062;DHT22;50308;47.438;-1.528;2022-10-16T04:48:09;18.00;81.00
64062;DHT22;50308;47.438;-1.528;2022-10-16T04:50:35;18.00;81.40
64062;DHT22;50308;47.438;-1.528;2022-10-16T04:53:00;18.00;81.10
64062;DHT22;50308;47.438;-1.528;2022-10-16T04:55:26;18.00;81.10
64062;DHT22;50308;47.438;-1.528;2022-10-16T04:57:51;18.00;81.20
64062;DHT22;50308;47.438;-1.528;2022-10-16T05:00:17;18.00;81.10
64062;DHT22;50308;47.438;-1.528;2022-10-16T05:02:43;18.00;81.30
64062;DHT22;50308;47.438;-1.528;2022-10-16T05:05:09;18.00;81.30
64062;DHT22;50308;47.438;-1.528;2022-10-16T05:07:35;18.00;81.50
64062;DHT22;50308;47.438;-1.528;2022-10-16T05:10:00;18.00;81.70
64062;DHT22;50308;47.438;-1.528;2022-10-16T05:12:26;18.00;81.60
64062;DHT22;50308;47.438;-1.528;2022-10-16T05:14:52;18.00;81.30
64062;DHT22;50308;47.438;-1.528;2022-10-16T05:17:17;18.00;81.60
64062;DHT22;50308;47.438;-1.528;2022-10-16T05:19:43;18.00;81.60
64062;DHT22;50308;47.438;-1.528;2022-10-16T05:22:09;18.00;81.90
64062;DHT22;50308;47.438;-1.528;2022-10-16T05:24:34;18.00;81.30
64062;DHT22;50308;47.438;-1.528;2022-10-16T05:27:00;18.00;80.60
64062;DHT22;50308;47.438;-1.528;2022-10-16T05:29:25;18.00;81.40
64062;DHT22;50308;47.438;-1.528;2022-10-16T05:31:52;18.00;81.60
64062;DHT22;50308;47.438;-1.528;2022-10-16T05:34:18;18.00;81.40
64062;DHT22;50308;47.438;-1.528;2022-10-16T05:36:45;18.00;81.00
64062;DHT22;50308;47.438;-1.528;2022-10-16T05:39:10;18.00;81.20
64062;DHT22;50308;47.438;-1.528;2022-10-16T05:41:36;17.90;82.00
64062;DHT22;50308;47.438;-1.528;2022-10-16T05:44:05;17.90;81.50
64062;DHT22;50308;47.438;-1.528;2022-10-16T05:46:31;18.00;81.00
64062;DHT22;50308;47.438;-1.528;2022-10-16T05:48:57;18.00;81.60
64062;DHT22;50308;47.438;-1.528;2022-10-16T05:51:23;17.90;81.50
64062;DHT22;50308;47.438;-1.528;2022-10-16T05:53:48;18.00;81.50
64062;DHT22;50308;47.438;-1.528;2022-10-16T05:56:14;18.00;81.40
64062;DHT22;50308;47.438;-1.528;2022-10-16T05:58:40;17.90;81.70
64062;DHT22;50308;47.438;-1.528;2022-10-16T06:01:12;18.00;81.80
64062;DHT22;50308;47.438;-1.528;2022-10-16T06:03:38;17.90;81.20
64062;DHT22;50308;47.438;-1.528;2022-10-16T06:06:07;18.00;81.40
64062;DHT22;50308;47.438;-1.528;2022-10-16T06:08:33;18.00;81.30
64062;DHT22;50308;47.438;-1.528;2022-10-16T06:11:03;18.00;80.90
64062;DHT22;50308;47.438;-1.528;2022-10-16T06:13:28;18.00;80.10
64062;DHT22;50308;47.438;-1.528;2022-10-16T06:18:38;18.10;81.40
64062;DHT22;50308;47.438;-1.528;2022-10-16T06:21:08;18.00;80.60
64062;DHT22;50308;47.438;-1.528;2022-10-16T06:23:34;18.00;81.20
64062;DHT22;50308;47.438;-1.528;2022-10-16T06:26:13;18.00;81.30
64062;DHT22;50308;47.438;-1.528;2022-10-16T06:28:39;18.00;82.90
64062;DHT22;50308;47.438;-1.528;2022-10-16T06:31:06;18.00;81.60
64062;DHT22;50308;47.438;-1.528;2022-10-16T06:33:31;18.00;81.70
64062;DHT22;50308;47.438;-1.528;2022-10-16T06:36:04;18.00;81.80
64062;DHT22;50308;47.438;-1.528;2022-10-16T06:38:30;18.00;81.80
64062;DHT22;50308;47.438;-1.528;2022-10-16T06:40:56;18.00;81.90
64062;DHT22;50308;47.438;-1.528;2022-10-16T06:43:22;18.00;81.60
64062;DHT22;50308;47.438;-1.528;2022-10-16T06:45:54;18.00;81.70
64062;DHT22;50308;47.438;-1.528;2022-10-16T06:48:20;18.00;81.10
64062;DHT22;50308;47.438;-1.528;2022-10-16T06:53:21;18.00;82.00
64062;DHT22;50308;47.438;-1.528;2022-10-16T06:55:46;18.00;81.80
64062;DHT22;50308;47.438;-1.528;2022-10-16T06:58:12;18.00;81.50
64062;DHT22;50308;47.438;-1.528;2022-10-16T07:00:37;18.00;82.70
64062;DHT22;50308;47.438;-1.528;2022-10-16T07:03:03;18.00;82.20
64062;DHT22;50308;47.438;-1.528;2022-10-16T07:05:28;18.00;81.70
64062;DHT22;50308;47.438;-1.528;2022-10-16T07:07:54;18.00;82.20
64062;DHT22;50308;47.438;-1.528;2022-10-16T07:10:19;18.00;82.20
64062;DHT22;50308;47.438;-1.528;2022-10-16T07:12:49;18.00;82.00
64062;DHT22;50308;47.438;-1.528;2022-10-16T07:15:15;18.00;80.90
64062;DHT22;50308;47.438;-1.528;2022-10-16T07:17:40;18.00;80.50
64062;DHT22;50308;47.438;-1.528;2022-10-16T07:20:06;18.00;80.60
64062;DHT22;50308;47.438;-1.528;2022-10-16T07:22:32;18.00;81.40
64062;DHT22;50308;47.438;-1.528;2022-10-16T07:24:58;18.00;80.90
64062;DHT22;50308;47.438;-1.528;2022-10-16T07:27:23;18.10;80.50
64062;DHT22;50308;47.438;-1.528;2022-10-16T07:29:49;18.00;80.30
64062;DHT22;50308;47.438;-1.528;2022-10-16T07:32:15;18.00;80.00
64062;DHT22;50308;47.438;-1.528;2022-10-16T07:34:41;18.10;80.60
64062;DHT22;50308;47.438;-1.528;2022-10-16T07:37:07;18.00;80.10
64062;DHT22;50308;47.438;-1.528;2022-10-16T07:39:32;18.10;80.20
64062;DHT22;50308;47.438;-1.528;2022-10-16T07:41:58;18.10;80.10
64062;DHT22;50308;47.438;-1.528;2022-10-16T07:44:24;18.10;80.00
64062;DHT22;50308;47.438;-1.528;2022-10-16T07:46:49;18.10;80.00
64062;DHT22;50308;47.438;-1.528;2022-10-16T07:49:15;18.10;80.00
64062;DHT22;50308;47.438;-1.528;2022-10-16T07:51:41;18.10;80.00
64062;DHT22;50308;47.438;-1.528;2022-10-16T07:54:08;18.10;80.00
64062;DHT22;50308;47.438;-1.528;2022-10-16T07:56:33;18.10;80.00
64062;DHT22;50308;47.438;-1.528;2022-10-16T07:58:59;18.10;80.00
64062;DHT22;50308;47.438;-1.528;2022-10-16T08:01:24;18.10;80.30
64062;DHT22;50308;47.438;-1.528;2022-10-16T08:03:50;18.10;81.30
64062;DHT22;50308;47.438;-1.528;2022-10-16T08:06:17;18.10;80.60
64062;DHT22;50308;47.438;-1.528;2022-10-16T08:08:43;18.20;80.80
64062;DHT22;50308;47.438;-1.528;2022-10-16T08:11:09;18.10;80.60
64062;DHT22;50308;47.438;-1.528;2022-10-16T08:13:34;18.20;80.60
64062;DHT22;50308;47.438;-1.528;2022-10-16T08:16:00;18.20;80.50
64062;DHT22;50308;47.438;-1.528;2022-10-16T08:18:27;18.20;80.50
64062;DHT22;50308;47.438;-1.528;2022-10-16T08:20:56;18.20;80.50
64062;DHT22;50308;47.438;-1.528;2022-10-16T08:23:23;18.20;80.60
64062;DHT22;50308;47.438;-1.528;2022-10-16T08:25:48;18.20;80.60
64062;DHT22;50308;47.438;-1.528;2022-10-16T08:28:14;18.20;80.80
64062;DHT22;50308;47.438;-1.528;2022-10-16T08:30:40;18.20;80.60
64062;DHT22;50308;47.438;-1.528;2022-10-16T08:33:06;18.20;80.50
64062;DHT22;50308;47.438;-1.528;2022-10-16T08:35:32;18.20;80.30
64062;DHT22;50308;47.438;-1.528;2022-10-16T08:37:57;18.20;80.40
64062;DHT22;50308;47.438;-1.528;2022-10-16T08:40:26;18.20;80.50
64062;DHT22;50308;47.438;-1.528;2022-10-16T08:50:24;18.30;80.80
64062;DHT22;50308;47.438;-1.528;2022-10-16T08:52:50;18.30;80.80
64062;DHT22;50308;47.438;-1.528;2022-10-16T08:55:58;18.30;80.80
64062;DHT22;50308;47.438;-1.528;2022-10-16T08:58:18;18.30;81.00
64062;DHT22;50308;47.438;-1.528;2022-10-16T09:00:45;18.30;80.80
64062;DHT22;50308;47.438;-1.528;2022-10-16T09:10:57;18.30;81.00
64062;DHT22;50308;47.438;-1.528;2022-10-16T09:18:44;18.30;80.20
64062;DHT22;50308;47.438;-1.528;2022-10-16T09:21:15;18.30;80.20
64062;DHT22;50308;47.438;-1.528;2022-10-16T09:23:43;18.30;80.50
64062;DHT22;50308;47.438;-1.528;2022-10-16T09:26:09;18.40;80.80
64062;DHT22;50308;47.438;-1.528;2022-10-16T09:28:36;18.30;80.10
64062;DHT22;50308;47.438;-1.528;2022-10-16T09:31:02;18.30;79.90
64062;DHT22;50308;47.438;-1.528;2022-10-16T09:33:33;18.40;80.20
64062;DHT22;50308;47.438;-1.528;2022-10-16T09:36:00;18.40;80.20
64062;DHT22;50308;47.438;-1.528;2022-10-16T09:38:34;18.30;79.90
64062;DHT22;50308;47.438;-1.528;2022-10-16T09:41:02;18.40;80.20
64062;DHT22;50308;47.438;-1.528;2022-10-16T09:45:58;18.40;80.00
64062;DHT22;50308;47.438;-1.528;2022-10-16T09:48:33;18.30;80.00
64062;DHT22;50308;47.438;-1.528;2022-10-16T09:51:02;18.40;80.10
64062;DHT22;50308;47.438;-1.528;2022-10-16T09:53:39;18.40;80.00
64062;DHT22;50308;47.438;-1.528;2022-10-16T09:56:06;18.40;79.90
64062;DHT22;50308;47.438;-1.528;2022-10-16T09:58:32;18.40;79.90
64062;DHT22;50308;47.438;-1.528;2022-10-16T10:00:59;18.40;80.20
64062;DHT22;50308;47.438;-1.528;2022-10-16T10:03:33;18.40;80.00
64062;DHT22;50308;47.438;-1.528;2022-10-16T10:06:03;18.40;79.90
64062;DHT22;50308;47.438;-1.528;2022-10-16T10:08:30;18.40;80.20
64062;DHT22;50308;47.438;-1.528;2022-10-16T10:10:56;18.40;80.00
64062;DHT22;50308;47.438;-1.528;2022-10-16T10:13:24;18.40;79.90
64062;DHT22;50308;47.438;-1.528;2022-10-16T10:15:52;18.40;80.00
64062;DHT22;50308;47.438;-1.528;2022-10-16T10:18:20;18.40;80.10
64062;DHT22;50308;47.438;-1.528;2022-10-16T10:20:58;18.40;80.10
64062;DHT22;50308;47.438;-1.528;2022-10-16T10:23:26;18.40;79.90
64062;DHT22;50308;47.438;-1.528;2022-10-16T10:28:32;18.40;79.80
64062;DHT22;50308;47.438;-1.528;2022-10-16T10:31:06;18.40;79.80
64062;DHT22;50308;47.438;-1.528;2022-10-16T10:38:53;18.50;79.90
64062;DHT22;50308;47.438;-1.528;2022-10-16T10:51:45;18.50;79.80
64062;DHT22;50308;47.438;-1.528;2022-10-16T10:54:58;18.50;79.80
64062;DHT22;50308;47.438;-1.528;2022-10-16T11:02:23;18.50;79.80
64062;DHT22;50308;47.438;-1.528;2022-10-16T11:07:39;18.50;79.90
64062;DHT22;50308;47.438;-1.528;2022-10-16T11:10:15;18.50;79.90
64062;DHT22;50308;47.438;-1.528;2022-10-16T11:12:58;18.50;79.90
64062;DHT22;50308;47.438;-1.528;2022-10-16T11:15:36;18.50;79.80
64062;DHT22;50308;47.438;-1.528;2022-10-16T11:18:15;18.50;79.80
64062;DHT22;50308;47.438;-1.528;2022-10-16T11:21:03;18.50;79.80
64062;DHT22;50308;47.438;-1.528;2022-10-16T11:26:13;18.50;79.70
64062;DHT22;50308;47.438;-1.528;2022-10-16T11:28:49;18.50;79.70
64062;DHT22;50308;47.438;-1.528;2022-10-16T11:31:20;18.50;79.90
64062;DHT22;50308;47.438;-1.528;2022-10-16T11:36:58;18.60;79.90
64062;DHT22;50308;47.438;-1.528;2022-10-16T11:39:30;18.60;79.90
64062;DHT22;50308;47.438;-1.528;2022-10-16T11:42:10;18.60;79.90
64062;DHT22;50308;47.438;-1.528;2022-10-16T11:49:53;18.60;80.10
64062;DHT22;50308;47.438;-1.528;2022-10-16T11:57:22;18.60;80.00
64062;DHT22;50308;47.438;-1.528;2022-10-16T11:59:57;18.60;79.90
64062;DHT22;50308;47.438;-1.528;2022-10-16T12:02:30;18.60;80.00
64062;DHT22;50308;47.438;-1.528;2022-10-16T12:05:06;18.60;80.00
64062;DHT22;50308;47.438;-1.528;2022-10-16T12:07:37;18.60;80.10
64062;DHT22;50308;47.438;-1.528;2022-10-16T12:12:48;18.60;80.00
64062;DHT22;50308;47.438;-1.528;2022-10-16T12:17:45;18.60;79.90
64062;DHT22;50308;47.438;-1.528;2022-10-16T12:22:36;18.60;80.10
64062;DHT22;50308;47.438;-1.528;2022-10-16T12:25:02;18.60;80.00
64062;DHT22;50308;47.438;-1.528;2022-10-16T12:27:31;18.70;80.00
64062;DHT22;50308;47.438;-1.528;2022-10-16T12:29:58;18.70;80.00
64062;DHT22;50308;47.438;-1.528;2022-10-16T12:32:32;18.70;80.00
64062;DHT22;50308;47.438;-1.528;2022-10-16T12:34:58;18.60;79.90
64062;DHT22;50308;47.438;-1.528;2022-10-16T12:37:25;18.60;80.10
64062;DHT22;50308;47.438;-1.528;2022-10-16T12:39:52;18.60;80.00
64062;DHT22;50308;47.438;-1.528;2022-10-16T12:44:53;18.70;80.10
64062;DHT22;50308;47.438;-1.528;2022-10-16T12:49:57;18.70;80.10
64062;DHT22;50308;47.438;-1.528;2022-10-16T12:52:28;18.70;80.00
64062;DHT22;50308;47.438;-1.528;2022-10-16T12:54:57;18.70;80.20
64062;DHT22;50308;47.438;-1.528;2022-10-16T13:00:07;18.70;80.10
64062;DHT22;50308;47.438;-1.528;2022-10-16T13:13:13;18.70;80.30
64062;DHT22;50308;47.438;-1.528;2022-10-16T13:18:29;18.70;80.20
64062;DHT22;50308;47.438;-1.528;2022-10-16T13:21:04;18.70;80.30
64062;DHT22;50308;47.438;-1.528;2022-10-16T13:23:58;18.70;80.20
64062;DHT22;50308;47.438;-1.528;2022-10-16T13:29:04;18.70;80.10
64062;DHT22;50308;47.438;-1.528;2022-10-16T13:31:30;18.80;80.40
64062;DHT22;50308;47.438;-1.528;2022-10-16T13:33:57;18.70;80.10
64062;DHT22;50308;47.438;-1.528;2022-10-16T13:36:28;18.80;80.40
64062;DHT22;50308;47.438;-1.528;2022-10-16T13:39:06;18.80;80.20
64062;DHT22;50308;47.438;-1.528;2022-10-16T13:41:35;18.80;80.30
64062;DHT22;50308;47.438;-1.528;2022-10-16T13:44:00;18.80;80.20
64062;DHT22;50308;47.438;-1.528;2022-10-16T13:46:26;18.80;80.50
64062;DHT22;50308;47.438;-1.528;2022-10-16T13:48:58;18.80;80.40
64062;DHT22;50308;47.438;-1.528;2022-10-16T13:51:24;18.70;80.30
64062;DHT22;50308;47.438;-1.528;2022-10-16T13:53:50;18.80;80.40
64062;DHT22;50308;47.438;-1.528;2022-10-16T13:56:16;18.80;80.20
64062;DHT22;50308;47.438;-1.528;2022-10-16T13:58:43;18.80;80.50
64062;DHT22;50308;47.438;-1.528;2022-10-16T14:01:15;18.80;80.40
64062;DHT22;50308;47.438;-1.528;2022-10-16T14:03:41;18.80;80.40
64062;DHT22;50308;47.438;-1.528;2022-10-16T14:06:11;18.80;80.30
64062;DHT22;50308;47.438;-1.528;2022-10-16T14:08:41;18.80;80.40
64062;DHT22;50308;47.438;-1.528;2022-10-16T14:11:07;18.80;80.40
64062;DHT22;50308;47.438;-1.528;2022-10-16T14:13:37;18.80;80.40
64062;DHT22;50308;47.438;-1.528;2022-10-16T14:16:07;18.80;80.30
64062;DHT22;50308;47.438;-1.528;2022-10-16T14:18:34;18.80;80.40
64062;DHT22;50308;47.438;-1.528;2022-10-16T14:21:04;18.80;80.20
64062;DHT22;50308;47.438;-1.528;2022-10-16T14:23:30;18.80;81.50
64062;DHT22;50308;47.438;-1.528;2022-10-16T14:28:32;18.80;80.40
64062;DHT22;50308;47.438;-1.528;2022-10-16T14:30:58;18.80;80.40
64062;DHT22;50308;47.438;-1.528;2022-10-16T14:33:25;18.80;80.40
64062;DHT22;50308;47.438;-1.528;2022-10-16T14:36:03;18.90;80.50
64062;DHT22;50308;47.438;-1.528;2022-10-16T14:38:30;18.80;80.40
64062;DHT22;50308;47.438;-1.528;2022-10-16T14:40:57;18.90;80.50
64062;DHT22;50308;47.438;-1.528;2022-10-16T14:46:19;18.90;80.50
64062;DHT22;50308;47.438;-1.528;2022-10-16T14:48:51;18.90;80.60
64062;DHT22;50308;47.438;-1.528;2022-10-16T14:51:20;18.90;80.60
64062;DHT22;50308;47.438;-1.528;2022-10-16T14:53:46;18.90;80.50
64062;DHT22;50308;47.438;-1.528;2022-10-16T14:56:19;18.90;80.50
64062;DHT22;50308;47.438;-1.528;2022-10-16T14:58:46;18.90;80.50
64062;DHT22;50308;47.438;-1.528;2022-10-16T15:01:12;18.90;80.50
64062;DHT22;50308;47.438;-1.528;2022-10-16T15:03:37;18.90;80.50
64062;DHT22;50308;47.438;-1.528;2022-10-16T15:06:03;18.90;80.50
64062;DHT22;50308;47.438;-1.528;2022-10-16T15:08:29;18.90;80.40
64062;DHT22;50308;47.438;-1.528;2022-10-16T15:10:54;18.90;80.60
64062;DHT22;50308;47.438;-1.528;2022-10-16T15:13:20;18.90;81.50
64062;DHT22;50308;47.438;-1.528;2022-10-16T15:15:46;18.90;80.50
64062;DHT22;50308;47.438;-1.528;2022-10-16T15:18:12;18.90;80.50
64062;DHT22;50308;47.438;-1.528;2022-10-16T15:20:40;18.90;80.40
64062;DHT22;50308;47.438;-1.528;2022-10-16T15:23:09;18.90;80.50
64062;DHT22;50308;47.438;-1.528;2022-10-16T15:25:46;18.90;80.50
64062;DHT22;50308;47.438;-1.528;2022-10-16T15:28:12;18.90;80.50
64062;DHT22;50308;47.438;-1.528;2022-10-16T15:30:38;18.90;80.50
64062;DHT22;50308;47.438;-1.528;2022-10-16T15:33:04;18.90;80.50
64062;DHT22;50308;47.438;-1.528;2022-10-16T15:35:30;18.90;80.50
64062;DHT22;50308;47.438;-1.528;2022-10-16T15:37:56;19.00;80.50
64062;DHT22;50308;47.438;-1.528;2022-10-16T15:40:22;19.00;80.60
64062;DHT22;50308;47.438;-1.528;2022-10-16T15:42:48;19.00;80.60
64062;DHT22;50308;47.438;-1.528;2022-10-16T15:45:17;19.00;80.50
64062;DHT22;50308;47.438;-1.528;2022-10-16T15:47:44;19.00;80.50
64062;DHT22;50308;47.438;-1.528;2022-10-16T15:50:10;19.00;80.60
64062;DHT22;50308;47.438;-1.528;2022-10-16T15:52:37;19.00;80.60
64062;DHT22;50308;47.438;-1.528;2022-10-16T15:55:08;19.00;80.70
64062;DHT22;50308;47.438;-1.528;2022-10-16T15:57:34;19.00;81.00
64062;DHT22;50308;47.438;-1.528;2022-10-16T16:00:04;19.00;81.00
64062;DHT22;50308;47.438;-1.528;2022-10-16T16:02:30;19.10;81.30
64062;DHT22;50308;47.438;-1.528;2022-10-16T16:04:56;19.10;80.80
64062;DHT22;50308;47.438;-1.528;2022-10-16T16:07:22;19.10;81.40
64062;DHT22;50308;47.438;-1.528;2022-10-16T16:09:47;19.10;81.50
64062;DHT22;50308;47.438;-1.528;2022-10-16T16:12:13;19.10;81.60
64062;DHT22;50308;47.438;-1.528;2022-10-16T16:14:39;19.10;81.90
64062;DHT22;50308;47.438;-1.528;2022-10-16T16:17:04;19.10;81.50
64062;DHT22;50308;47.438;-1.528;2022-10-16T16:19:30;19.10;81.30
64062;DHT22;50308;47.438;-1.528;2022-10-16T16:21:57;19.10;81.30
64062;DHT22;50308;47.438;-1.528;2022-10-16T16:24:22;19.10;81.20
64062;DHT22;50308;47.438;-1.528;2022-10-16T16:26:48;19.10;81.40
64062;DHT22;50308;47.438;-1.528;2022-10-16T16:29:14;19.10;81.30
64062;DHT22;50308;47.438;-1.528;2022-10-16T16:31:40;19.10;81.10
64062;DHT22;50308;47.438;-1.528;2022-10-16T16:34:06;19.10;81.10
64062;DHT22;50308;47.438;-1.528;2022-10-16T16:36:31;19.10;81.00
64062;DHT22;50308;47.438;-1.528;2022-10-16T16:38:57;19.10;80.90
64062;DHT22;50308;47.438;-1.528;2022-10-16T16:41:24;19.10;80.90
64062;DHT22;50308;47.438;-1.528;2022-10-16T16:43:51;19.10;80.80
64062;DHT22;50308;47.438;-1.528;2022-10-16T16:46:16;19.10;80.70
64062;DHT22;50308;47.438;-1.528;2022-10-16T16:48:42;19.10;80.70
64062;DHT22;50308;47.438;-1.528;2022-10-16T16:51:09;19.10;80.60
64062;DHT22;50308;47.438;-1.528;2022-10-16T16:53:35;19.10;80.80
64062;DHT22;50308;47.438;-1.528;2022-10-16T16:56:04;19.10;80.60
64062;DHT22;50308;47.438;-1.528;2022-10-16T16:58:30;19.10;80.60
64062;DHT22;50308;47.438;-1.528;2022-10-16T17:00:56;19.10;80.60
64062;DHT22;50308;47.438;-1.528;2022-10-16T17:03:26;19.10;80.60
64062;DHT22;50308;47.438;-1.528;2022-10-16T17:05:59;19.10;80.60
64062;DHT22;50308;47.438;-1.528;2022-10-16T17:08:26;19.10;80.60
64062;DHT22;50308;47.438;-1.528;2022-10-16T17:10:52;19.10;80.60
64062;DHT22;50308;47.438;-1.528;2022-10-16T17:13:30;19.10;80.60
64062;DHT22;50308;47.438;-1.528;2022-10-16T17:15:55;19.10;80.60
64062;DHT22;50308;47.438;-1.528;2022-10-16T17:18:22;19.10;80.60
64062;DHT22;50308;47.438;-1.528;2022-10-16T17:20:48;19.10;81.60